Time;durP1;ratioP1;P1;durP2;ratioP2;P2;SDS_P1;SDS_P2;PMS_P1;PMS_P2;Temp;Humidity;BMP_temperature;BMP_pressure;BME280_temperature;BME280_humidity;BME280_pressure;Samples;Min_cycle;Max_cycle;Signal;HPM_P1;HPM_P2
2024/04/02 00:00:34;;;;;;;0.60;0.60;;;;;;;13.91;72.11;96431.06;4967947;28;20068;-65
2024/04/02 00:03:00;;;;;;;0.60;0.60;;;;;;;14.14;72.06;96455.59;4968049;28;20065;-64
2024/04/02 00:05:26;;;;;;;0.63;0.63;;;;;;;13.72;72.15;96389.06;4984944;28;20480;-64
2024/04/02 00:07:52;;;;;;;0.60;0.60;;;;;;;13.93;71.77;96428.69;4984925;28;20058;-63
2024/04/02 00:10:18;;;;;;;0.60;0.60;;;;;;;13.93;70.76;96433.44;4984958;28;20054;-64
2024/04/02 00:12:44;;;;;;;0.60;0.60;;;;;;;13.81;72.28;96453.41;4984400;28;20058;-63
2024/04/02 00:15:11;;;;;;;0.60;0.60;;;;;;;13.98;71.63;96446.94;4983998;28;20101;-62
2024/04/02 00:17:37;;;;;;;0.70;0.70;;;;;;;13.75;72.37;96443.91;4983874;28;20058;-62
2024/04/02 00:20:06;;;;;;;0.60;0.60;;;;;;;13.60;72.88;96449.53;4983749;28;20065;-62
2024/04/02 00:22:32;;;;;;;0.60;0.60;;;;;;;13.25;72.16;96382.91;4983447;28;20065;-62
2024/04/02 00:24:58;;;;;;;0.55;0.55;;;;;;;13.30;72.39;96407.53;4983695;28;20086;-62
2024/04/02 00:27:23;;;;;;;0.60;0.60;;;;;;;13.18;70.93;96399.63;4967315;28;20576;-63
2024/04/02 00:29:49;;;;;;;0.60;0.60;;;;;;;13.43;73.03;96449.59;4967180;28;20054;-65
2024/04/02 00:32:15;;;;;;;0.60;0.60;;;;;;;13.53;72.59;96444.00;4967569;28;20058;-62
2024/04/02 00:34:44;;;;;;;0.60;0.60;;;;;;;13.54;73.55;96448.38;4983556;28;20062;-64
2024/04/02 00:37:10;;;;;;;0.60;0.60;;;;;;;13.38;74.50;96448.03;4983696;28;20058;-65
2024/04/02 00:39:36;;;;;;;0.60;0.60;;;;;;;13.24;76.11;96452.84;4983702;28;20457;-64
2024/04/02 00:42:05;;;;;;;0.60;0.60;;;;;;;13.20;76.58;96447.28;4983862;28;20057;-62
2024/04/02 00:44:35;;;;;;;0.60;0.60;;;;;;;13.02;77.43;96437.41;4983820;28;20066;-63
2024/04/02 00:47:02;;;;;;;0.60;0.60;;;;;;;13.14;77.89;96440.56;4984195;28;20113;-63
2024/04/02 00:49:28;;;;;;;0.50;0.50;;;;;;;12.73;78.96;96383.84;4967472;28;20433;-63
2024/04/02 00:51:54;;;;;;;0.60;0.60;;;;;;;13.05;78.54;96429.06;4970911;28;20113;-63
2024/04/02 00:54:20;;;;;;;0.60;0.60;;;;;;;13.12;78.28;96437.38;4996219;28;20078;-63
2024/04/02 00:56:46;;;;;;;0.60;0.60;;;;;;;13.04;78.76;96435.81;4963523;28;20063;-64
2024/04/02 00:59:11;;;;;;;0.60;0.60;;;;;;;12.82;79.20;96378.66;4958202;28;20085;-64
2024/04/02 01:01:37;;;;;;;0.60;0.60;;;;;;;11.18;78.63;96111.22;4983007;28;20430;-63
2024/04/02 01:04:04;;;;;;;0.60;0.60;;;;;;;13.23;78.78;96429.03;4983152;28;20540;-64
2024/04/02 01:06:30;;;;;;;0.50;0.50;;;;;;;13.25;78.54;96421.84;4973526;28;20442;-64
2024/04/02 01:08:56;;;;;;;0.60;0.60;;;;;;;13.39;77.80;96416.22;4961287;28;20070;-66
2024/04/02 01:11:24;;;;;;;0.60;0.60;;;;;;;13.36;77.57;96407.91;4983243;28;20058;-63
2024/04/02 01:13:51;;;;;;;0.50;0.50;;;;;;;12.95;77.15;96338.09;4983144;28;20425;-64
2024/04/02 01:16:21;;;;;;;0.60;0.60;;;;;;;13.17;76.70;96369.44;4982663;28;20394;-63
2024/04/02 01:18:47;;;;;;;0.52;0.52;;;;;;;13.48;75.93;96402.66;4983315;28;20136;-63
2024/04/02 01:21:13;;;;;;;0.60;0.60;;;;;;;13.40;76.44;96398.34;4983824;28;20521;-63
2024/04/02 01:23:39;;;;;;;0.60;0.60;;;;;;;13.33;77.03;96394.78;4983462;28;20552;-63
2024/04/02 01:26:05;;;;;;;0.60;0.60;;;;;;;12.89;79.05;96386.97;4983131;28;20050;-63
2024/04/02 01:28:30;;;;;;;0.60;0.60;;;;;;;12.58;79.09;96310.06;4982467;28;20054;-63
2024/04/02 01:30:56;;;;;;;0.60;0.60;;;;;;;12.75;80.85;96398.13;4981905;28;20070;-62
2024/04/02 01:33:22;;;;;;;0.60;0.60;;;;;;;12.53;80.13;96348.56;4966450;28;20093;-63
2024/04/02 01:35:48;;;;;;;0.60;0.60;;;;;;;12.82;80.38;96392.53;4982287;28;20489;-62
2024/04/02 01:38:14;;;;;;;0.50;0.50;;;;;;;12.31;80.02;96314.47;4966142;28;20230;-63
2024/04/02 01:40:40;;;;;;;0.60;0.60;;;;;;;12.95;80.01;96393.72;4982251;28;20065;-63
2024/04/02 01:43:06;;;;;;;0.50;0.50;;;;;;;12.21;80.00;96279.19;4982316;28;20054;-64
2024/04/02 01:45:32;;;;;;;0.55;0.55;;;;;;;12.95;79.96;96407.59;4982227;28;20050;-64
2024/04/02 01:47:57;;;;;;;0.60;0.60;;;;;;;12.93;79.19;96390.53;4982334;28;20132;-63
2024/04/02 01:50:23;;;;;;;0.50;0.50;;;;;;;13.04;78.88;96388.53;4950110;28;20506;-63
2024/04/02 01:52:49;;;;;;;0.50;0.50;;;;;;;12.75;78.85;96353.66;4995137;28;20051;-63
2024/04/02 01:55:15;;;;;;;0.60;0.60;;;;;;;12.89;78.12;96414.78;5014180;28;20054;-65
2024/04/02 01:57:40;;;;;;;0.50;0.50;;;;;;;12.72;78.19;96398.94;4982018;28;20108;-63
2024/04/02 02:00:07;;;;;;;0.50;0.50;;;;;;;12.69;78.29;96399.75;4966239;28;20061;-63
2024/04/02 02:02:32;;;;;;;0.60;0.60;;;;;;;12.84;77.52;96394.91;4967061;28;20058;-62
2024/04/02 02:04:58;;;;;;;0.60;0.60;;;;;;;12.67;76.17;96379.88;4982541;28;20054;-63
2024/04/02 02:07:24;;;;;;;0.60;0.60;;;;;;;12.82;75.95;96403.66;4981942;28;20046;-65
2024/04/02 02:09:50;;;;;;;0.60;0.60;;;;;;;12.80;74.57;96408.84;4981659;28;20054;-64
2024/04/02 02:12:15;;;;;;;0.50;0.50;;;;;;;12.15;74.17;96309.31;4981492;28;20555;-64
2024/04/02 02:14:41;;;;;;;0.60;0.60;;;;;;;12.81;74.87;96410.41;4981249;28;20085;-64
2024/04/02 02:17:07;;;;;;;0.50;0.50;;;;;;;12.90;74.62;96410.03;4981467;28;20055;-63
2024/04/02 02:19:33;;;;;;;0.50;0.50;;;;;;;12.68;75.94;96412.03;4981176;28;20066;-64
2024/04/02 02:21:58;;;;;;;0.60;0.60;;;;;;;12.59;77.51;96394.97;4982034;28;20050;-64
2024/04/02 02:24:24;;;;;;;0.50;0.50;;;;;;;12.53;78.19;96407.69;4981735;28;20065;-62
2024/04/02 02:26:51;;;;;;;0.50;0.50;;;;;;;11.96;75.81;96317.28;4965635;28;20058;-63
2024/04/02 02:29:22;;;;;;;0.60;0.60;;;;;;;12.50;76.28;96402.94;4981112;28;20061;-64
2024/04/02 02:31:48;;;;;;;0.50;0.50;;;;;;;12.52;76.08;96397.75;4982040;28;20069;-62
2024/04/02 02:34:14;;;;;;;0.57;0.57;;;;;;;12.16;76.61;96376.75;4981662;28;20054;-61
2024/04/02 02:36:39;;;;;;;0.50;0.50;;;;;;;12.16;77.06;96310.13;4981683;28;20054;-63
2024/04/02 02:39:05;;;;;;;0.50;0.50;;;;;;;12.33;78.63;96364.06;4965439;28;20464;-64
2024/04/02 02:41:31;;;;;;;0.50;0.50;;;;;;;12.07;80.02;96351.38;4981370;28;20617;-63
2024/04/02 02:43:58;;;;;;;0.50;0.50;;;;;;;11.92;78.83;96377.53;4981256;28;20054;-63
2024/04/02 02:46:24;;;;;;;0.52;0.52;;;;;;;12.33;78.23;96380.72;4964432;28;20512;-62
2024/04/02 02:48:49;;;;;;;0.50;0.50;;;;;;;12.11;79.27;96389.03;4981264;28;20065;-64
2024/04/02 02:51:15;;;;;;;0.50;0.50;;;;;;;12.11;78.92;96391.03;4974530;28;20062;-63
2024/04/02 02:53:41;;;;;;;0.50;0.50;;;;;;;12.23;77.87;96390.66;4974729;28;20062;-64
2024/04/02 02:56:07;;;;;;;0.52;0.52;;;;;;;12.27;77.75;96382.28;4942829;29;20070;-62
2024/04/02 02:58:32;;;;;;;0.57;0.57;;;;;;;12.34;78.08;96377.53;4937180;28;20061;-63
2024/04/02 03:01:04;;;;;;;0.50;0.50;;;;;;;11.83;78.24;96314.09;4970312;28;20063;-65
2024/04/02 03:03:30;;;;;;;0.50;0.50;;;;;;;12.30;77.90;96382.28;4953404;28;20058;-63
2024/04/02 03:05:56;;;;;;;0.60;0.60;;;;;;;11.56;77.59;96276.00;4982819;28;20525;-62
2024/04/02 03:08:23;;;;;;;0.60;0.60;;;;;;;11.71;81.45;96383.06;4985341;28;20054;-63
2024/04/02 03:11:00;;;;;;;0.50;0.50;;;;;;;11.73;81.40;96386.22;4985360;28;20508;-64
2024/04/02 03:13:26;;;;;;;0.50;0.50;;;;;;;9.55;83.19;96069.69;4969142;28;20062;-62
2024/04/02 03:15:52;;;;;;;0.50;0.50;;;;;;;11.61;82.68;96373.50;4984927;28;20148;-63
2024/04/02 03:18:18;;;;;;;0.50;0.50;;;;;;;11.64;81.70;96352.53;4984711;28;20108;-64
2024/04/02 03:20:44;;;;;;;0.50;0.50;;;;;;;11.70;81.81;96381.44;4968936;28;20058;-62
2024/04/02 03:23:10;;;;;;;0.50;0.50;;;;;;;11.12;82.16;96319.88;4984959;28;20050;-62
2024/04/02 03:25:39;;;;;;;0.50;0.50;;;;;;;11.62;81.84;96363.19;4968398;28;20073;-63
2024/04/02 03:28:06;;;;;;;0.50;0.50;;;;;;;10.63;82.85;96268.66;4984646;28;20540;-63
2024/04/02 03:30:31;;;;;;;0.50;0.50;;;;;;;11.47;83.05;96386.53;4968689;28;20054;-62
2024/04/02 03:32:58;;;;;;;0.50;0.50;;;;;;;11.32;83.41;96379.34;5001807;28;20061;-63
2024/04/02 03:35:23;;;;;;;0.50;0.50;;;;;;;10.93;85.36;96370.88;4985250;28;20058;-65
2024/04/02 03:37:49;;;;;;;0.50;0.50;;;;;;;10.79;84.87;96325.69;4984689;28;20058;-63
2024/04/02 03:40:15;;;;;;;0.50;0.50;;;;;;;11.13;85.50;96379.69;4984423;28;20058;-64
2024/04/02 03:42:41;;;;;;;0.50;0.50;;;;;;;10.89;86.44;96328.50;4984474;28;20054;-64
2024/04/02 03:45:08;;;;;;;0.50;0.50;;;;;;;11.12;86.50;96361.44;4984297;28;20086;-63
2024/04/02 03:47:34;;;;;;;0.43;0.43;;;;;;;11.26;86.34;96364.28;4968650;28;20054;-63
2024/04/02 03:49:59;;;;;;;0.50;0.50;;;;;;;11.27;85.74;96371.44;4984588;28;20895;-63
2024/04/02 03:52:25;;;;;;;0.50;0.50;;;;;;;11.41;85.58;96379.78;4951551;28;20070;-63
2024/04/02 03:54:51;;;;;;;0.50;0.50;;;;;;;11.31;84.91;96358.34;4980694;28;20054;-63
2024/04/02 03:57:17;;;;;;;0.50;0.50;;;;;;;11.48;84.79;96368.69;4984120;28;20057;-63
2024/04/02 03:59:42;;;;;;;0.50;0.50;;;;;;;11.28;83.66;96336.97;4966339;28;20544;-64
2024/04/02 04:02:08;;;;;;;0.50;0.50;;;;;;;11.25;82.95;96308.06;4959319;28;20061;-63
2024/04/02 04:04:34;;;;;;;0.50;0.50;;;;;;;11.32;81.67;96304.47;4962950;28;20058;-64
2024/04/02 04:07:00;;;;;;;0.50;0.50;;;;;;;11.37;83.08;96351.25;4963626;28;20058;-65
2024/04/02 04:09:25;;;;;;;0.50;0.50;;;;;;;11.53;83.16;96371.09;4963609;28;20650;-64
2024/04/02 04:11:52;;;;;;;0.50;0.50;;;;;;;11.66;82.63;96347.38;4963828;28;20078;-63
2024/04/02 04:14:18;;;;;;;0.50;0.50;;;;;;;11.51;82.49;96323.53;4964163;28;20050;-63
2024/04/02 04:16:43;;;;;;;0.50;0.50;;;;;;;11.65;82.54;96326.38;4963263;28;20059;-63
2024/04/02 04:19:09;;;;;;;0.60;0.60;;;;;;;11.79;81.39;96352.13;4963173;28;20065;-65
2024/04/02 04:21:36;;;;;;;0.60;0.60;;;;;;;11.83;79.62;96363.25;4947792;28;20058;-62
2024/04/02 04:24:02;;;;;;;0.50;0.50;;;;;;;11.32;79.82;96296.16;4963332;28;20088;-63
2024/04/02 04:26:28;;;;;;;0.50;0.50;;;;;;;11.23;83.73;96370.59;4947063;28;20055;-63
2024/04/02 04:28:54;;;;;;;0.50;0.50;;;;;;;11.16;84.08;96403.84;4963441;28;20121;-65
2024/04/02 04:31:19;;;;;;;0.50;0.50;;;;;;;10.95;84.77;96373.25;4946879;28;20132;-63
2024/04/02 04:33:45;;;;;;;0.50;0.50;;;;;;;11.00;85.54;96364.59;4962749;28;20559;-62
2024/04/02 04:36:12;;;;;;;0.50;0.50;;;;;;;11.14;85.87;96367.41;4946607;28;20604;-64
2024/04/02 04:38:38;;;;;;;0.50;0.50;;;;;;;11.29;84.74;96367.06;4946313;28;20442;-62
2024/04/02 04:41:04;;;;;;;0.50;0.50;;;;;;;8.59;84.35;95923.13;4958785;28;20062;-63
2024/04/02 04:43:29;;;;;;;0.50;0.50;;;;;;;11.51;84.18;96365.13;4959098;28;20054;-75
2024/04/02 04:45:58;;;;;;;0.50;0.50;;;;;;;11.43;83.37;96371.88;4995790;28;20050;-71
2024/04/02 04:48:24;;;;;;;0.50;0.50;;;;;;;11.28;82.04;96314.78;4981492;28;20112;-62
2024/04/02 04:50:55;;;;;;;0.50;0.50;;;;;;;10.56;82.10;96204.94;4981869;28;20061;-69
2024/04/02 04:53:20;;;;;;;0.52;0.52;;;;;;;11.73;81.62;96369.56;4980766;28;20050;-70
2024/04/02 04:55:46;;;;;;;0.52;0.52;;;;;;;11.79;80.54;96362.47;4981714;28;20070;-64
2024/04/02 04:58:12;;;;;;;0.50;0.50;;;;;;;11.85;80.44;96377.53;4928991;28;1530827;-61
2024/04/02 05:00:38;;;;;;;0.50;0.50;;;;;;;11.52;79.74;96314.03;4983003;28;20057;-62
2024/04/02 05:03:05;;;;;;;0.50;0.50;;;;;;;9.98;79.05;96018.91;4966026;28;20057;-62
2024/04/02 05:05:32;;;;;;;0.57;0.57;;;;;;;12.08;77.77;96364.06;4982091;28;20059;-70
2024/04/02 05:08:17;;;;;;;0.60;0.60;;;;;;;12.26;78.08;96375.16;4981970;28;20062;-62
2024/04/02 05:10:47;;;;;;;0.50;0.50;;;;;;;12.24;77.79;96364.44;4981869;28;20500;-62
2024/04/02 05:13:15;;;;;;;0.50;0.50;;;;;;;12.60;76.99;96345.78;4981695;28;20054;-69
2024/04/02 05:15:41;;;;;;;0.55;0.55;;;;;;;12.74;76.29;96357.63;4983079;28;20058;-70
2024/04/02 05:18:07;;;;;;;0.50;0.50;;;;;;;12.91;74.31;96367.91;4983277;28;20054;-63
2024/04/02 05:20:33;;;;;;;0.60;0.60;;;;;;;12.31;73.91;96288.69;4983422;28;20058;-62
2024/04/02 05:22:59;;;;;;;0.60;0.60;;;;;;;12.81;74.92;96329.81;4998806;28;20069;-69
2024/04/02 05:25:25;;;;;;;0.50;0.50;;;;;;;10.52;74.75;95957.72;4982172;28;20058;-69
2024/04/02 05:27:51;;;;;;;0.60;0.60;;;;;;;13.22;75.89;96403.19;4965225;28;20058;-61
2024/04/02 05:30:17;;;;;;;0.50;0.50;;;;;;;12.95;76.35;96307.53;4982103;28;20518;-69
2024/04/02 05:32:42;;;;;;;0.50;0.50;;;;;;;13.40;74.93;96381.63;4965334;28;20085;-71
2024/04/02 05:35:08;;;;;;;0.60;0.60;;;;;;;12.34;74.06;96199.81;4981502;28;20061;-72
2024/04/02 05:37:35;;;;;;;0.57;0.57;;;;;;;11.75;71.97;96050.94;4981629;28;20141;-70
2024/04/02 05:40:07;;;;;;;0.60;0.60;;;;;;;13.12;72.46;96262.19;4962596;28;20047;-72
2024/04/02 05:42:33;;;;;;;0.65;0.65;;;;;;;13.66;70.27;96292.06;4965128;28;20469;-63
2024/04/02 05:45:00;;;;;;;0.60;0.60;;;;;;;14.21;69.54;96405.44;4981693;28;20054;-70
2024/04/02 05:47:27;;;;;;;0.60;0.60;;;;;;;14.42;69.57;96349.53;4997544;28;20081;-75
2024/04/02 05:49:53;;;;;;;0.60;0.60;;;;;;;14.64;68.84;96362.06;4964642;28;20054;-63
2024/04/02 05:52:18;;;;;;;0.60;0.60;;;;;;;14.94;67.88;96359.38;4981205;28;20060;-62
2024/04/02 05:54:44;;;;;;;0.60;0.60;;;;;;;15.21;67.22;96363.03;4980553;28;20054;-61
2024/04/02 05:57:11;;;;;;;0.60;0.60;;;;;;;15.43;67.30;96335.72;4981516;28;20058;-65
2024/04/02 05:59:39;;;;;;;0.60;0.60;;;;;;;15.52;67.13;96328.41;4981554;28;20054;-74
2024/04/02 06:02:05;;;;;;;0.68;0.68;;;;;;;15.36;66.54;96279.94;4981969;28;20085;-72
2024/04/02 06:04:31;;;;;;;0.70;0.70;;;;;;;15.65;70.13;96354.53;4966037;28;20054;-71
2024/04/02 06:06:57;;;;;;;0.70;0.70;;;;;;;15.48;72.23;96361.16;4981153;28;20057;-67
2024/04/02 06:09:23;;;;;;;0.60;0.60;;;;;;;15.28;70.42;96357.41;4981295;28;20051;-70
2024/04/02 06:11:48;;;;;;;0.60;0.60;;;;;;;14.70;70.68;96279.59;4981236;28;20536;-70
2024/04/02 06:14:14;;;;;;;0.65;0.65;;;;;;;15.28;70.32;96365.75;4964542;28;20126;-60
2024/04/02 06:16:40;;;;;;;0.80;0.80;;;;;;;15.43;68.91;96358.03;4980408;28;20054;-58
2024/04/02 06:19:06;;;;;;;0.60;0.60;;;;;;;15.65;67.20;96364.94;4981786;28;20050;-60
2024/04/02 06:21:32;;;;;;;0.60;0.60;;;;;;;15.81;66.01;96346.31;4980371;28;20058;-70
2024/04/02 06:23:58;;;;;;;0.60;0.60;;;;;;;16.27;64.92;96352.00;4982163;28;21144;-59
2024/04/02 06:26:24;;;;;;;0.70;0.70;;;;;;;16.25;64.13;96337.66;4980497;28;20132;-69
2024/04/02 06:28:50;;;;;;;0.70;0.70;;;;;;;16.18;64.69;96304.25;4972292;28;20054;-67
2024/04/02 06:31:16;;;;;;;0.70;0.70;;;;;;;14.58;65.29;96057.16;4980008;28;20053;-79
2024/04/02 06:33:41;;;;;;;0.70;0.70;;;;;;;16.61;65.28;96369.41;4962518;28;20061;-60
2024/04/02 06:36:07;;;;;;;0.70;0.70;;;;;;;16.77;62.39;96345.56;4984891;28;20081;-70
2024/04/02 06:38:33;;;;;;;0.73;0.73;;;;;;;17.49;60.23;96350.97;4958277;28;20054;-64
2024/04/02 06:40:59;;;;;;;0.80;0.80;;;;;;;17.75;58.65;96360.41;4978641;28;20089;-61
2024/04/02 06:43:24;;;;;;;0.80;0.80;;;;;;;18.28;56.93;96353.56;4962641;28;20046;-61
2024/04/02 06:45:58;;;;;;;0.88;0.88;;;;;;;18.78;55.65;96349.09;4977906;28;20061;-64
2024/04/02 06:48:24;;;;;;;0.80;0.80;;;;;;;18.56;54.96;96308.81;4989933;28;20057;-66
2024/04/02 06:51:03;;;;;;;0.70;0.70;;;;;;;19.25;54.02;96355.84;4962628;28;20050;-60
2024/04/02 06:53:30;;;;;;;0.90;0.90;;;;;;;18.85;51.98;96275.97;4978616;28;20058;-62
2024/04/02 06:55:56;;;;;;;0.90;0.90;;;;;;;19.64;52.20;96353.97;4975769;28;20124;-61
2024/04/02 06:58:22;;;;;;;0.90;0.90;;;;;;;19.84;51.92;96354.59;4991362;28;20063;-59
2024/04/02 07:00:49;;;;;;;0.90;0.90;;;;;;;19.90;52.32;96347.16;4969090;28;20059;-64
2024/04/02 07:03:20;;;;;;;0.93;0.93;;;;;;;19.62;53.14;96354.41;4979494;28;20287;-66
2024/04/02 07:05:47;;;;;;;0.80;0.80;;;;;;;19.29;54.17;96334.09;4979969;28;20058;-74
2024/04/02 07:08:13;;;;;;;0.90;0.90;;;;;;;19.06;54.82;96285.81;4964546;28;20054;-69
2024/04/02 07:10:44;;;;;;;0.85;0.85;;;;;;;19.81;54.38;96335.78;4979406;28;20104;-62
2024/04/02 07:13:11;;;;;;;0.80;0.80;;;;;;;19.08;56.03;96337.47;4979017;28;20347;-64
2024/04/02 07:15:41;;;;;;;0.90;0.90;;;;;;;19.03;56.16;96312.75;4978681;28;20066;-65
2024/04/02 07:18:07;;;;;;;0.80;0.80;;;;;;;18.82;56.14;96411.56;4979165;28;20414;-70
2024/04/02 07:20:34;;;;;;;0.80;0.80;;;;;;;19.25;56.09;96339.00;4978943;28;20054;-59
2024/04/02 07:23:00;;;;;;;0.90;0.90;;;;;;;19.71;54.06;96332.09;4979636;28;20066;-69
2024/04/02 07:25:27;;;;;;;0.90;0.90;;;;;;;18.82;54.79;96299.31;4979968;28;20145;-62
2024/04/02 07:27:53;;;;;;;0.80;0.80;;;;;;;19.80;51.47;96342.66;4980885;28;20113;-60
2024/04/02 07:30:19;;;;;;;0.90;0.90;;;;;;;19.55;48.51;96290.78;4980557;28;20053;-60
2024/04/02 07:32:45;;;;;;;0.90;0.90;;;;;;;19.58;48.66;96334.84;4981096;28;20149;-59
2024/04/02 07:35:11;;;;;;;0.90;0.90;;;;;;;19.93;49.05;96321.75;4979833;28;20525;-61
2024/04/02 07:37:37;;;;;;;0.80;0.80;;;;;;;20.54;47.25;96327.03;4980704;28;20061;-65
2024/04/02 07:40:03;;;;;;;0.98;0.98;;;;;;;20.85;46.76;96319.53;4981120;28;20055;-67
2024/04/02 07:42:29;;;;;;;0.80;0.80;;;;;;;21.09;46.42;96315.06;4981277;28;20062;-70
2024/04/02 07:44:55;;;;;;;1.00;1.00;;;;;;;21.50;46.16;96317.59;4980575;28;20061;-59
2024/04/02 07:47:21;;;;;;;0.90;0.90;;;;;;;21.84;44.79;96314.72;4980261;28;20481;-62
2024/04/02 07:49:47;;;;;;;1.00;1.00;;;;;;;22.05;43.71;96322.31;4980176;28;20062;-68
2024/04/02 07:52:13;;;;;;;0.90;0.90;;;;;;;22.12;43.22;96293.84;4982136;28;20061;-61
2024/04/02 07:54:39;;;;;;;0.98;0.98;;;;;;;22.48;42.77;96310.91;4983615;28;20062;-65
2024/04/02 07:57:06;;;;;;;1.00;1.00;;;;;;;22.65;42.40;96257.81;4980696;28;20054;-61
2024/04/02 07:59:32;;;;;;;1.00;1.00;;;;;;;22.69;41.66;96285.88;4993285;28;20058;-60
2024/04/02 08:01:57;;;;;;;1.00;1.00;;;;;;;22.56;41.90;96257.00;4984046;28;20054;-70
2024/04/02 08:04:23;;;;;;;1.10;1.10;;;;;;;22.60;41.98;96283.81;4982889;28;20129;-62
2024/04/02 08:06:49;;;;;;;1.00;1.00;;;;;;;21.59;42.92;96281.00;4981607;28;20054;-62
2024/04/02 08:09:15;;;;;;;0.95;0.95;;;;;;;22.07;42.68;96252.13;4973641;28;20539;-64
2024/04/02 08:11:43;;;;;;;1.00;1.00;;;;;;;22.53;41.58;96277.66;4980234;28;20054;-67
2024/04/02 08:14:10;;;;;;;1.00;1.00;;;;;;;22.71;41.60;96294.66;4974595;28;20058;-60
2024/04/02 08:16:36;;;;;;;1.00;1.00;;;;;;;22.45;40.77;96300.53;4983120;28;20060;-61
2024/04/02 08:19:02;;;;;;;1.00;1.00;;;;;;;22.20;41.06;96292.31;4983747;28;20054;-69
2024/04/02 08:21:28;;;;;;;0.93;0.93;;;;;;;21.46;41.79;96249.31;4979156;28;20053;-60
2024/04/02 08:27:16;;;;;;;1.00;1.00;;;;;;;22.33;42.09;96287.34;4981495;28;20057;-67
2024/04/02 08:29:42;;;;;;;0.93;0.93;;;;;;;;;;4997135;28;20058;-64
2024/04/02 08:32:07;;;;;;;1.10;1.10;;;;;;;22.45;41.38;96195.31;4992611;28;20047;-63
2024/04/02 08:34:33;;;;;;;1.10;1.10;;;;;;;22.84;41.01;96281.97;4986376;28;20049;-70
2024/04/02 08:36:59;;;;;;;1.00;1.00;;;;;;;21.86;41.09;96159.16;4985699;28;20050;-66
2024/04/02 08:39:25;;;;;;;0.90;0.90;;;;;;;22.13;41.48;96229.75;4989835;28;20053;-63
2024/04/02 08:41:58;;;;;;;0.90;0.90;;;;;;;22.55;41.38;96275.19;4987932;28;20054;-72
2024/04/02 08:44:24;;;;;;;1.00;1.00;;;;;;;22.53;41.62;96277.66;4991426;28;20100;-67
2024/04/02 08:46:50;;;;;;;0.90;0.90;;;;;;;22.29;42.34;96275.41;4983521;28;20047;-67
2024/04/02 08:49:19;;;;;;;0.90;0.90;;;;;;;22.19;41.79;96222.25;4993368;28;20058;-67
2024/04/02 08:51:45;;;;;;;1.00;1.00;;;;;;;22.52;41.44;96202.72;4998234;28;20504;-61
2024/04/02 08:54:11;;;;;;;1.00;1.00;;;;;;;22.96;40.63;96266.91;4965475;28;20181;-59
2024/04/02 08:56:36;;;;;;;0.90;0.90;;;;;;;23.39;39.37;96268.66;4982571;28;20113;-59
2024/04/02 08:59:03;;;;;;;1.05;1.05;;;;;;;23.08;39.72;96262.38;4982283;28;20054;-61
2024/04/02 09:01:30;;;;;;;0.95;0.95;;;;;;;22.87;40.04;96257.66;4982304;28;20094;-64
2024/04/02 09:04:01;;;;;;;1.10;1.10;;;;;;;23.26;39.37;96231.28;4980872;28;20046;-61
2024/04/02 09:06:27;;;;;;;0.95;0.95;;;;;;;22.74;39.96;96206.97;4978538;28;20940;-61
2024/04/02 09:08:53;;;;;;;0.90;0.90;;;;;;;23.40;38.71;96244.78;4984344;28;20054;-70
2024/04/02 09:11:19;;;;;;;0.90;0.90;;;;;;;22.88;38.59;96157.53;4966089;28;20046;-73
2024/04/02 09:13:44;;;;;;;1.20;1.20;;;;;;;23.58;38.24;96172.00;4983016;28;20060;-72
2024/04/02 09:16:10;;;;;;;1.00;1.00;;;;;;;24.34;38.00;96245.09;4981523;28;20772;-60
2024/04/02 09:18:37;;;;;;;1.30;1.30;;;;;;;24.34;37.79;96233.00;4982061;28;20062;-60
2024/04/02 09:21:03;;;;;;;1.10;1.10;;;;;;;24.59;37.07;96224.81;4966033;28;20050;-72
2024/04/02 09:23:30;;;;;;;1.10;1.10;;;;;;;24.76;36.54;96217.47;4982214;28;20517;-71
2024/04/02 09:25:56;;;;;;;1.10;1.10;;;;;;;25.00;36.33;96200.44;4982125;28;20511;-70
2024/04/02 09:28:22;;;;;;;1.13;1.13;;;;;;;24.07;37.45;96106.56;4982277;28;20050;-72
2024/04/02 09:30:48;;;;;;;1.15;1.15;;;;;;;25.30;36.31;96208.50;4981684;28;20054;-61
2024/04/02 09:33:18;;;;;;;1.05;1.05;;;;;;;25.46;35.74;96209.31;4981859;28;20478;-60
2024/04/02 09:35:56;;;;;;;1.20;1.20;;;;;;;25.79;34.60;96204.22;4982298;28;20534;-71
2024/04/02 09:38:22;;;;;;;1.20;1.20;;;;;;;26.00;34.07;96200.22;4981455;28;20054;-60
2024/04/02 09:40:50;;;;;;;1.50;1.50;;;;;;;26.38;32.54;96189.41;4982101;28;20514;-71
2024/04/02 09:43:18;;;;;;;1.23;1.23;;;;;;;26.66;31.97;96169.94;4965861;28;20046;-61
2024/04/02 09:45:46;;;;;;;1.30;1.30;;;;;;;26.16;33.03;96125.88;4982118;28;20069;-60
2024/04/02 09:48:14;;;;;;;1.30;1.30;;;;;;;26.19;34.01;96175.97;4964914;28;20113;-60
2024/04/02 09:50:43;;;;;;;1.20;1.20;;;;;;;26.80;32.82;96180.44;4982150;28;20062;-60
2024/04/02 09:53:11;;;;;;;1.30;1.30;;;;;;;26.35;31.54;96166.91;4982083;28;20046;-74
2024/04/02 09:55:39;;;;;;;1.30;1.30;;;;;;;25.85;32.12;96162.50;4981166;28;20058;-72
2024/04/02 09:58:08;;;;;;;1.20;1.20;;;;;;;25.62;33.35;96092.53;4979655;28;20066;-73
2024/04/02 10:00:36;;;;;;;1.10;1.10;;;;;;;25.95;34.04;96159.09;4980368;28;20493;-61
2024/04/02 10:03:04;;;;;;;1.25;1.25;;;;;;;25.62;34.14;96103.88;4980748;28;20128;-61
2024/04/02 10:05:33;;;;;;;1.27;1.27;;;;;;;26.48;32.66;96153.13;4986897;28;20476;-72
2024/04/02 10:07:59;;;;;;;1.30;1.30;;;;;;;26.49;31.12;96114.94;4964185;28;20105;-61
2024/04/02 10:10:29;;;;;;;1.30;1.30;;;;;;;26.78;30.13;96086.38;4964975;28;20057;-60
2024/04/02 10:12:56;;;;;;;1.27;1.27;;;;;;;27.35;30.82;96135.56;4965081;28;20054;-59
2024/04/02 10:15:22;;;;;;;1.58;1.58;;;;;;;27.33;30.48;96132.44;4981294;28;20065;-72
2024/04/02 10:17:58;;;;;;;1.33;1.33;;;;;;;27.05;30.45;96083.03;4981273;28;20058;-70
2024/04/02 10:20:26;;;;;;;1.40;1.40;;;;;;;27.37;29.29;96076.13;4946202;28;20542;-61
2024/04/02 10:22:56;;;;;;;1.50;1.50;;;;;;;27.97;28.22;96107.13;4964893;28;20057;-61
2024/04/02 10:25:26;;;;;;;1.70;1.70;;;;;;;28.01;27.02;96099.13;4967949;28;20062;-72
2024/04/02 10:27:57;;;;;;;1.40;1.40;;;;;;;28.09;27.71;96091.66;4962734;28;20438;-71
2024/04/02 10:30:27;;;;;;;1.48;1.48;;;;;;;28.20;27.18;96096.63;4994968;28;20090;-59
2024/04/02 10:32:57;;;;;;;1.70;1.70;;;;;;;28.26;26.22;96091.75;4965894;28;20491;-72
2024/04/02 10:35:28;;;;;;;1.30;1.30;;;;;;;28.12;25.50;96089.88;4981175;28;20050;-59
2024/04/02 10:37:58;;;;;;;1.90;1.90;;;;;;;28.38;26.00;96072.63;4980532;28;20065;-59
2024/04/02 10:40:25;;;;;;;1.60;1.60;;;;;;;28.48;25.66;96082.56;4980805;28;20630;-74
2024/04/02 10:42:52;;;;;;;1.40;1.40;;;;;;;28.56;26.61;96077.94;4980936;28;20058;-61
2024/04/02 10:45:19;;;;;;;1.42;1.42;;;;;;;28.46;26.12;96085.09;4981171;28;20058;-61
2024/04/02 10:47:52;;;;;;;1.60;1.60;;;;;;;26.22;25.73;95791.66;4980946;28;20062;-71
2024/04/02 10:50:19;;;;;;;1.40;1.40;;;;;;;28.29;26.26;96095.66;4964575;28;20066;-72
2024/04/02 10:52:46;;;;;;;1.45;1.45;;;;;;;28.11;26.80;96059.81;4980688;28;20453;-60
2024/04/02 10:55:12;;;;;;;1.50;1.50;;;;;;;28.28;27.02;96091.25;4980500;28;20422;-74
2024/04/02 10:57:39;;;;;;;1.50;1.50;;;;;;;28.17;26.65;96099.75;4981094;28;20068;-73
2024/04/02 11:00:08;;;;;;;1.45;1.45;;;;;;;27.77;26.07;96035.28;4964865;28;20081;-60
2024/04/02 11:02:38;;;;;;;1.55;1.55;;;;;;;27.88;26.23;96081.69;4964749;28;20050;-72
2024/04/02 11:05:06;;;;;;;1.50;1.50;;;;;;;27.90;25.54;96099.06;4981568;28;20513;-59
2024/04/02 11:07:33;;;;;;;1.40;1.40;;;;;;;27.91;25.97;96102.69;4980268;28;20461;-73
2024/04/02 11:09:59;;;;;;;1.60;1.60;;;;;;;27.65;26.26;96062.88;4980621;28;20061;-64
2024/04/02 11:12:26;;;;;;;1.60;1.60;;;;;;;28.26;26.54;96096.69;4980999;28;20058;-73
2024/04/02 11:14:53;;;;;;;1.65;1.65;;;;;;;26.98;25.49;95875.97;4963163;28;20058;-72
2024/04/02 11:17:19;;;;;;;1.40;1.40;;;;;;;28.01;25.71;96050.72;4966595;28;20046;-73
2024/04/02 11:19:45;;;;;;;1.45;1.45;;;;;;;28.24;25.50;96068.69;4979513;28;20054;-70
2024/04/02 11:25:14;;;;;;;1.60;1.60;;;;;;;28.03;25.26;96082.31;4978212;28;20054;-72
2024/04/02 11:27:41;;;;;;;1.67;1.67;;;;;;;28.12;25.99;96078.50;5013837;28;20489;-60
2024/04/02 11:30:08;;;;;;;1.73;1.73;;;;;;;27.91;25.45;96012.38;4982638;28;20298;-67
2024/04/02 11:32:35;;;;;;;1.55;1.55;;;;;;;28.65;25.47;96074.84;4982099;28;20477;-61
2024/04/02 11:35:05;;;;;;;1.50;1.50;;;;;;;29.04;24.95;96070.00;4982135;28;20046;-61
2024/04/02 11:37:32;;;;;;;1.60;1.60;;;;;;;29.40;24.69;96071.91;4985624;28;20493;-62